createdAt,value
2018-01-05T00:02:05.890Z,8.90
2018-01-05T00:04:33.363Z,8.90
2018-01-05T00:07:01.580Z,8.90
2018-01-05T00:09:29.680Z,8.80
2018-01-05T00:11:57.132Z,8.80
2018-01-05T00:14:24.602Z,8.80
2018-01-05T00:16:52.048Z,8.90
2018-01-05T00:19:19.516Z,8.90
2018-01-05T00:21:46.970Z,8.90
2018-01-05T00:24:14.441Z,8.90
2018-01-05T00:26:42.672Z,8.90
2018-01-05T00:29:10.136Z,8.90
2018-01-05T00:31:37.606Z,8.80
2018-01-05T00:34:05.058Z,8.80
2018-01-05T00:36:32.523Z,8.80
2018-01-05T00:38:59.958Z,8.80
2018-01-05T00:41:27.464Z,8.80
2018-01-05T00:43:54.917Z,8.70
2018-01-05T00:46:23.168Z,8.70
2018-01-05T00:48:50.668Z,8.70
2018-01-05T00:51:18.139Z,8.70
2018-01-05T00:53:45.587Z,8.70
2018-01-05T00:56:13.038Z,8.60
2018-01-05T00:58:40.509Z,8.70
2018-01-05T01:01:07.960Z,8.70
2018-01-05T01:03:35.431Z,8.60
2018-01-05T01:06:02.902Z,8.50
2018-01-05T01:08:30.374Z,8.50
2018-01-05T01:10:57.852Z,8.50
2018-01-05T01:13:26.081Z,8.50
2018-01-05T01:15:53.556Z,8.50
2018-01-05T01:18:20.994Z,8.50
2018-01-05T01:20:48.453Z,8.50
2018-01-05T01:23:15.943Z,8.50
2018-01-05T01:25:44.178Z,8.60
2018-01-05T01:28:11.607Z,8.50
2018-01-05T01:30:39.207Z,8.60
2018-01-05T01:33:06.647Z,8.60
2018-01-05T01:35:34.119Z,8.60
2018-01-05T01:38:01.580Z,8.60
2018-01-05T01:40:29.050Z,8.60
2018-01-05T01:42:57.272Z,8.50
2018-01-05T01:45:24.745Z,8.50
2018-01-05T01:47:52.201Z,8.50
2018-01-05T01:50:19.638Z,8.50
2018-01-05T01:52:47.098Z,8.40
2018-01-05T01:55:14.543Z,8.40
2018-01-05T01:57:42.003Z,8.40
2018-01-05T02:00:09.449Z,8.30
2018-01-05T02:02:36.902Z,8.30
2018-01-05T02:05:04.352Z,8.30
2018-01-05T02:07:31.849Z,8.30
2018-01-05T02:09:59.420Z,8.20
2018-01-05T02:12:26.896Z,8.20
2018-01-05T02:14:54.372Z,8.20
2018-01-05T02:17:22.576Z,8.00
2018-01-05T02:19:50.058Z,8.10
2018-01-05T02:22:17.500Z,8.10
2018-01-05T02:24:45.021Z,8.00
2018-01-05T02:27:12.501Z,8.00
2018-01-05T02:29:39.957Z,8.00
2018-01-05T02:32:07.416Z,8.00
2018-01-05T02:34:34.863Z,8.00
2018-01-05T02:37:02.368Z,8.00
2018-01-05T02:39:29.799Z,8.00
2018-01-05T02:41:57.277Z,8.00
2018-01-05T02:44:24.726Z,8.00
2018-01-05T02:46:52.193Z,8.00
2018-01-05T02:49:19.662Z,8.00
2018-01-05T02:51:47.110Z,8.00
2018-01-05T02:54:14.567Z,8.00
2018-01-05T02:56:42.082Z,8.00
2018-01-05T02:59:09.732Z,8.00
2018-01-05T03:01:37.157Z,8.00
2018-01-05T03:04:05.385Z,8.10
2018-01-05T03:06:32.837Z,8.10
2018-01-05T03:09:00.301Z,8.10
2018-01-05T03:11:27.732Z,8.10
2018-01-05T03:13:55.354Z,8.10
2018-01-05T03:16:23.329Z,8.10
2018-01-05T03:18:50.820Z,8.10
2018-01-05T03:21:18.271Z,8.20
2018-01-05T03:23:45.781Z,8.20
2018-01-05T03:26:13.232Z,8.20
2018-01-05T03:28:41.543Z,8.30
2018-01-05T03:31:09.250Z,8.30
2018-01-05T03:33:36.721Z,8.30
2018-01-05T03:36:04.177Z,8.30
2018-01-05T03:38:31.626Z,8.30
2018-01-05T03:40:59.183Z,8.40
2018-01-05T03:43:26.672Z,8.30
2018-01-05T03:45:54.138Z,8.30
2018-01-05T03:48:22.362Z,8.40
2018-01-05T03:50:49.831Z,8.30
2018-01-05T03:53:17.279Z,8.40
2018-01-05T03:55:44.787Z,8.40
2018-01-05T03:58:12.228Z,8.40
2018-01-05T04:00:40.520Z,8.40
2018-01-05T04:03:07.956Z,8.40
2018-01-05T04:05:36.188Z,8.40
2018-01-05T04:08:03.687Z,8.40
2018-01-05T04:10:31.125Z,8.40
2018-01-05T04:12:58.593Z,8.40
2018-01-05T04:15:26.054Z,8.40
2018-01-05T04:17:53.505Z,8.50
2018-01-05T04:20:20.981Z,8.50
2018-01-05T04:22:48.436Z,8.60
2018-01-05T04:25:16.670Z,8.50
2018-01-05T04:27:44.124Z,8.50
2018-01-05T04:30:11.587Z,8.60
2018-01-05T04:32:39.025Z,8.50
2018-01-05T04:35:06.492Z,8.50
2018-01-05T04:37:33.946Z,8.60
2018-01-05T04:40:01.501Z,8.60
2018-01-05T04:42:28.954Z,8.70
2018-01-05T04:44:56.414Z,8.60
2018-01-05T04:47:23.891Z,8.60
2018-01-05T04:49:51.343Z,8.60
2018-01-05T04:52:18.823Z,8.60
2018-01-05T04:54:47.062Z,8.70
2018-01-05T04:57:14.535Z,8.70
2018-01-05T04:59:42.012Z,8.70
2018-01-05T05:02:10.232Z,8.70
2018-01-05T05:04:37.676Z,8.70
2018-01-05T05:07:05.163Z,8.70
2018-01-05T05:09:32.604Z,8.70
2018-01-05T05:12:00.064Z,8.70
2018-01-05T05:14:27.523Z,8.80
2018-01-05T05:16:55.701Z,8.70
2018-01-05T05:19:23.164Z,8.70
2018-01-05T05:21:50.644Z,8.80
2018-01-05T05:24:18.895Z,8.80
2018-01-05T05:26:46.342Z,8.80
2018-01-05T05:29:14.500Z,8.80
2018-01-05T05:31:41.995Z,8.80
2018-01-05T05:34:09.465Z,8.80
2018-01-05T05:36:37.689Z,8.90
2018-01-05T05:39:05.155Z,8.90
2018-01-05T05:41:33.235Z,8.90
2018-01-05T05:44:00.699Z,9.00
2018-01-05T05:46:28.156Z,9.00
2018-01-05T05:48:55.605Z,9.10
2018-01-05T05:51:23.088Z,9.20
2018-01-05T05:53:51.304Z,9.30
2018-01-05T05:56:18.756Z,9.30
2018-01-05T05:58:46.216Z,9.30
2018-01-05T06:01:13.662Z,9.30
2018-01-05T06:03:41.141Z,9.40
2018-01-05T06:06:08.622Z,9.40
2018-01-05T06:08:36.082Z,9.40
2018-01-05T06:11:03.513Z,9.40
2018-01-05T06:13:30.980Z,9.40
2018-01-05T06:15:58.425Z,9.40
2018-01-05T06:18:25.884Z,9.50
2018-01-05T06:20:53.322Z,9.40
2018-01-05T06:23:20.775Z,9.40
2018-01-05T06:25:48.263Z,9.40
2018-01-05T06:28:15.760Z,9.40
2018-01-05T06:30:43.223Z,9.30
2018-01-05T06:33:10.693Z,9.30
2018-01-05T06:35:38.181Z,9.20
2018-01-05T06:38:05.625Z,9.20
2018-01-05T06:40:33.084Z,9.20
2018-01-05T06:43:00.560Z,9.20
2018-01-05T06:45:28.054Z,9.20
2018-01-05T06:47:56.256Z,9.30
2018-01-05T06:50:23.732Z,9.20
2018-01-05T06:52:51.180Z,9.30
2018-01-05T06:55:18.715Z,9.40
2018-01-05T06:57:46.156Z,9.40
2018-01-05T07:00:14.516Z,9.50
2018-01-05T07:02:41.924Z,9.50
2018-01-05T07:05:09.367Z,9.50
2018-01-05T07:07:36.834Z,9.60
2018-01-05T07:10:04.298Z,9.60
2018-01-05T07:12:31.756Z,9.70
2018-01-05T07:14:59.228Z,9.70
2018-01-05T07:17:26.700Z,9.70
2018-01-05T07:19:54.128Z,9.70
2018-01-05T07:22:21.624Z,9.80
2018-01-05T07:24:49.113Z,9.70
2018-01-05T07:27:16.583Z,9.80
2018-01-05T07:29:44.045Z,9.80
2018-01-05T07:32:11.497Z,9.80
2018-01-05T07:34:38.969Z,9.80
2018-01-05T07:37:06.412Z,9.90
2018-01-05T07:39:33.871Z,9.90
2018-01-05T07:42:01.325Z,9.90
2018-01-05T07:44:28.797Z,9.90
2018-01-05T07:46:56.228Z,9.90
2018-01-05T07:49:23.697Z,9.90
2018-01-05T07:51:51.135Z,9.90
2018-01-05T07:54:18.594Z,9.90
2018-01-05T07:56:46.068Z,10.00
2018-01-05T07:59:13.534Z,10.00
2018-01-05T08:01:41.102Z,10.00
2018-01-05T08:04:08.564Z,10.00
2018-01-05T08:06:36.015Z,10.00
2018-01-05T08:09:03.514Z,10.00
2018-01-05T08:11:30.964Z,10.00
2018-01-05T08:13:58.418Z,10.10
2018-01-05T08:16:25.906Z,10.00
2018-01-05T08:18:53.346Z,10.00
2018-01-05T08:21:20.919Z,10.00
2018-01-05T08:23:48.357Z,10.00
2018-01-05T08:26:15.803Z,10.00
2018-01-05T08:28:43.287Z,9.90
2018-01-05T08:31:10.733Z,10.00
2018-01-05T08:33:38.207Z,9.90
2018-01-05T08:36:05.668Z,10.00
2018-01-05T08:38:33.135Z,10.00
2018-01-05T08:41:00.602Z,10.00
2018-01-05T08:43:28.087Z,10.00
2018-01-05T08:45:56.304Z,10.00
2018-01-05T08:48:23.771Z,10.00
2018-01-05T08:50:51.273Z,10.00
2018-01-05T08:53:19.521Z,10.10
2018-01-05T08:55:46.982Z,10.10
2018-01-05T08:58:14.452Z,10.10
2018-01-05T09:00:42.661Z,10.00
2018-01-05T09:03:10.132Z,10.00
2018-01-05T09:05:37.577Z,10.00
2018-01-05T09:08:05.019Z,10.00
2018-01-05T09:10:32.488Z,10.00
2018-01-05T09:12:59.955Z,10.00
2018-01-05T09:15:27.443Z,10.00
2018-01-05T09:17:54.888Z,10.00
2018-01-05T09:20:22.343Z,10.00
2018-01-05T09:22:49.808Z,10.10
2018-01-05T09:25:17.275Z,10.10
2018-01-05T09:27:44.740Z,10.10
2018-01-05T09:30:12.972Z,10.10
2018-01-05T09:32:40.456Z,10.10
2018-01-05T09:35:07.908Z,10.20
2018-01-05T09:37:35.359Z,10.20
2018-01-05T09:40:02.829Z,10.20
2018-01-05T09:42:30.292Z,10.20
2018-01-05T09:44:58.534Z,10.30
2018-01-05T09:47:25.976Z,10.30
2018-01-05T09:49:53.444Z,10.30
2018-01-05T09:52:20.991Z,10.30
2018-01-05T09:54:48.436Z,10.30
2018-01-05T09:57:15.915Z,10.30
2018-01-05T09:59:43.417Z,10.30
2018-01-05T10:02:10.872Z,10.30
2018-01-05T10:04:39.230Z,10.20
2018-01-05T10:07:06.696Z,10.20
2018-01-05T10:09:34.925Z,10.20
2018-01-05T10:12:02.390Z,10.20
2018-01-05T10:14:29.833Z,10.00
2018-01-05T10:16:57.296Z,9.80
2018-01-05T10:19:24.944Z,9.60
2018-01-05T10:21:52.406Z,9.60
2018-01-05T10:24:19.854Z,9.60
2018-01-05T10:26:47.319Z,9.70
2018-01-05T10:29:14.779Z,9.60
2018-01-05T10:31:42.283Z,9.60
2018-01-05T10:34:10.522Z,9.50
2018-01-05T10:36:38.024Z,9.50
2018-01-05T10:39:05.552Z,9.50
2018-01-05T10:41:33.006Z,9.50
2018-01-05T10:44:00.482Z,9.50
2018-01-05T10:46:27.936Z,9.50
2018-01-05T10:48:55.433Z,9.50
2018-01-05T10:51:22.865Z,9.50
2018-01-05T10:53:51.588Z,9.50
2018-01-05T10:56:19.038Z,9.50
2018-01-05T10:58:46.473Z,9.50
2018-01-05T11:01:13.972Z,9.60
2018-01-05T11:03:41.496Z,9.60
2018-01-05T11:06:09.481Z,9.50
2018-01-05T11:08:36.961Z,9.50
2018-01-05T11:11:04.396Z,9.40
2018-01-05T11:13:31.839Z,9.40
2018-01-05T11:15:59.290Z,9.40
2018-01-05T11:18:26.755Z,9.50
2018-01-05T11:20:54.216Z,9.50
2018-01-05T11:23:21.680Z,9.50
2018-01-05T11:25:49.146Z,9.50
2018-01-05T11:28:16.574Z,9.50
2018-01-05T11:30:44.016Z,9.50
2018-01-05T11:33:11.482Z,9.50
2018-01-05T11:35:39.007Z,9.40
2018-01-05T11:38:06.469Z,9.50
2018-01-05T11:40:34.684Z,9.50
2018-01-05T11:43:02.921Z,9.50
2018-01-05T11:45:30.346Z,9.50
2018-01-05T11:47:57.785Z,9.50
2018-01-05T11:50:25.257Z,9.60
2018-01-05T11:52:52.814Z,9.70
2018-01-05T11:55:20.256Z,9.70
2018-01-05T11:57:47.764Z,9.80
2018-01-05T12:00:15.200Z,9.80
2018-01-05T12:02:43.427Z,9.90
2018-01-05T12:05:10.887Z,9.80
2018-01-05T12:07:38.324Z,9.90
2018-01-05T12:10:05.790Z,9.90
2018-01-05T12:12:33.231Z,9.90
2018-01-05T12:15:00.690Z,9.80
2018-01-05T12:17:28.143Z,9.70
2018-01-05T12:19:55.598Z,9.80
2018-01-05T12:22:23.138Z,9.80
2018-01-05T12:24:50.599Z,9.80
2018-01-05T12:27:18.056Z,9.70
2018-01-05T12:29:45.523Z,9.80
2018-01-05T12:32:13.134Z,9.80
2018-01-05T12:34:40.575Z,9.90
2018-01-05T12:37:08.032Z,9.80
2018-01-05T12:39:35.503Z,9.70
2018-01-05T12:42:02.948Z,9.80
2018-01-05T12:44:30.405Z,9.80
2018-01-05T12:46:57.867Z,9.80
2018-01-05T12:49:25.340Z,9.90
2018-01-05T12:51:53.571Z,10.00
2018-01-05T12:54:21.541Z,10.00
2018-01-05T12:56:48.992Z,10.00
2018-01-05T12:59:16.465Z,10.00
2018-01-05T13:01:44.286Z,10.10
2018-01-05T13:04:11.726Z,10.00
2018-01-05T13:06:39.159Z,9.90
2018-01-05T13:09:06.641Z,10.00
2018-01-05T13:11:34.091Z,10.00
2018-01-05T13:14:01.599Z,10.10
2018-01-05T13:16:29.060Z,10.10
2018-01-05T13:18:56.501Z,10.10
2018-01-05T13:21:23.955Z,10.10
2018-01-05T13:23:51.413Z,10.10
2018-01-05T13:26:18.920Z,9.90
2018-01-05T13:28:46.376Z,9.90
2018-01-05T13:31:13.877Z,10.10
2018-01-05T13:33:42.158Z,10.10
2018-01-05T13:36:09.641Z,10.00
2018-01-05T13:38:37.228Z,10.00
2018-01-05T13:41:04.692Z,9.90
2018-01-05T13:43:32.943Z,9.90
2018-01-05T13:46:00.399Z,9.90
2018-01-05T13:48:27.891Z,9.90
2018-01-05T13:50:56.085Z,9.80
2018-01-05T13:53:23.548Z,9.80
2018-01-05T13:55:51.031Z,9.80
2018-01-05T13:58:19.316Z,9.70
2018-01-05T14:00:46.796Z,9.70
2018-01-05T14:03:15.014Z,9.70
2018-01-05T14:05:42.488Z,9.70
2018-01-05T14:08:10.007Z,9.70
2018-01-05T14:10:37.392Z,9.50
2018-01-05T14:13:04.878Z,9.50
2018-01-05T14:15:32.436Z,9.50
2018-01-05T14:17:59.909Z,9.50
2018-01-05T14:20:27.363Z,9.40
2018-01-05T14:22:54.933Z,9.30
2018-01-05T14:25:22.424Z,9.30
2018-01-05T14:27:49.880Z,9.30
2018-01-05T14:30:17.368Z,9.30
2018-01-05T14:32:44.833Z,9.30
2018-01-05T14:35:12.918Z,9.30
2018-01-05T14:37:41.138Z,9.20
2018-01-05T14:40:08.613Z,9.20
2018-01-05T14:42:36.044Z,9.20
2018-01-05T14:45:03.550Z,9.20
2018-01-05T14:47:30.994Z,9.30
2018-01-05T14:49:58.448Z,9.20
2018-01-05T14:52:25.894Z,9.10
2018-01-05T14:54:53.392Z,9.10
2018-01-05T14:57:20.871Z,9.10
2018-01-05T14:59:48.357Z,9.10
2018-01-05T15:02:15.815Z,9.10
2018-01-05T15:04:43.354Z,9.10
2018-01-05T15:07:10.808Z,9.10
2018-01-05T15:09:38.265Z,9.20
2018-01-05T15:12:05.859Z,9.20
2018-01-05T15:14:33.360Z,9.10
2018-01-05T15:17:00.792Z,9.10
2018-01-05T15:19:29.025Z,9.20
2018-01-05T15:21:56.447Z,9.10
2018-01-05T15:24:23.907Z,9.20
2018-01-05T15:26:51.378Z,9.10
2018-01-05T15:29:18.848Z,9.10
2018-01-05T15:31:46.288Z,9.10
2018-01-05T15:34:13.738Z,9.10
2018-01-05T15:36:41.232Z,9.00
2018-01-05T15:39:09.321Z,9.00
2018-01-05T15:41:36.759Z,9.00
2018-01-05T15:44:04.214Z,8.90
2018-01-05T15:46:31.662Z,9.00
2018-01-05T15:48:59.227Z,8.90
2018-01-05T15:51:26.720Z,8.80
2018-01-05T15:53:54.171Z,8.80
2018-01-05T15:56:21.665Z,8.80
2018-01-05T15:58:49.209Z,8.80
2018-01-05T16:01:16.679Z,8.80
2018-01-05T16:03:44.128Z,8.80
2018-01-05T16:06:11.597Z,8.70
2018-01-05T16:08:39.090Z,8.70
2018-01-05T16:11:07.287Z,8.80
2018-01-05T16:13:35.533Z,8.80
2018-01-05T16:16:03.032Z,8.70
2018-01-05T16:18:30.493Z,8.70
2018-01-05T16:20:57.961Z,8.70
2018-01-05T16:23:25.473Z,8.70
2018-01-05T16:25:52.908Z,8.60
2018-01-05T16:28:20.444Z,8.60
2018-01-05T16:30:47.900Z,8.60
2018-01-05T16:33:15.355Z,8.60
2018-01-05T16:35:42.855Z,8.60
2018-01-05T16:38:10.315Z,8.60
2018-01-05T16:40:37.796Z,8.50
2018-01-05T16:43:06.017Z,8.50
2018-01-05T16:45:33.501Z,8.50
2018-01-05T16:48:00.933Z,8.50
2018-01-05T16:50:28.421Z,8.50
2018-01-05T16:52:55.869Z,8.50
2018-01-05T16:55:23.953Z,8.50
2018-01-05T16:57:52.216Z,8.50
2018-01-05T17:00:19.684Z,8.50
2018-01-05T17:02:47.917Z,8.60
2018-01-05T17:05:15.963Z,8.60
2018-01-05T17:07:43.566Z,8.60
2018-01-05T17:10:11.025Z,8.50
2018-01-05T17:12:39.264Z,8.50
2018-01-05T17:15:06.711Z,8.50
2018-01-05T17:17:34.179Z,8.50
2018-01-05T17:20:01.656Z,8.50
2018-01-05T17:22:29.158Z,8.60
2018-01-05T17:24:56.595Z,8.60
2018-01-05T17:27:24.825Z,8.50
2018-01-05T17:29:53.140Z,8.50
2018-01-05T17:32:20.589Z,8.50
2018-01-05T17:34:48.046Z,8.50
2018-01-05T17:37:15.560Z,8.50
2018-01-05T17:39:43.010Z,8.50
2018-01-05T17:42:10.503Z,8.50
2018-01-05T17:44:38.011Z,8.50
2018-01-05T17:47:05.453Z,8.40
2018-01-05T17:49:33.678Z,8.40
2018-01-05T17:52:01.170Z,8.50
2018-01-05T17:54:28.622Z,8.40
2018-01-05T17:56:56.068Z,8.40
2018-01-05T17:59:24.267Z,8.40
2018-01-05T18:01:52.523Z,8.40
2018-01-05T18:04:19.979Z,8.40
2018-01-05T18:06:47.442Z,8.40
2018-01-05T18:09:15.211Z,8.40
2018-01-05T18:11:43.467Z,8.40
2018-01-05T18:14:10.898Z,8.40
2018-01-05T18:16:38.360Z,8.30
2018-01-05T18:19:05.789Z,8.40
2018-01-05T18:21:33.420Z,8.40
2018-01-05T18:24:01.642Z,8.40
2018-01-05T18:26:29.102Z,8.30
2018-01-05T18:28:56.570Z,8.40
2018-01-05T18:31:24.097Z,8.30
2018-01-05T18:33:52.501Z,8.30
2018-01-05T18:36:19.981Z,8.30
2018-01-05T18:38:47.437Z,8.30
2018-01-05T18:41:14.906Z,8.30
2018-01-05T18:43:43.138Z,8.30
2018-01-05T18:46:10.619Z,8.30
2018-01-05T18:48:38.095Z,8.30
2018-01-05T18:51:06.356Z,8.30
2018-01-05T18:53:33.808Z,8.40
2018-01-05T18:56:01.306Z,8.40
2018-01-05T18:58:28.792Z,8.40
2018-01-05T19:00:56.234Z,8.40
2018-01-05T19:03:23.730Z,8.40
2018-01-05T19:05:51.147Z,8.40
2018-01-05T19:08:19.291Z,8.40
2018-01-05T19:10:46.751Z,8.40
2018-01-05T19:13:14.202Z,8.50
2018-01-05T19:15:42.429Z,8.50
2018-01-05T19:18:09.877Z,8.50
2018-01-05T19:20:38.227Z,8.50
2018-01-05T19:23:06.456Z,8.60
2018-01-05T19:25:34.009Z,8.60
2018-01-05T19:28:01.509Z,8.50
2018-01-05T19:30:29.050Z,8.50
2018-01-05T19:32:57.483Z,8.50
2018-01-05T19:35:25.057Z,8.50
2018-01-05T19:37:52.704Z,8.50
2018-01-05T19:40:20.269Z,8.50
2018-01-05T19:42:47.807Z,8.40
2018-01-05T19:45:15.855Z,8.50
2018-01-05T19:47:43.323Z,8.50
2018-01-05T19:50:11.361Z,8.50
2018-01-05T19:52:39.576Z,8.50
2018-01-05T19:55:07.054Z,8.50
2018-01-05T19:57:35.270Z,8.50
2018-01-05T20:00:03.479Z,8.40
2018-01-05T20:02:30.983Z,8.40
2018-01-05T20:04:59.250Z,8.40
2018-01-05T20:07:26.708Z,8.50
2018-01-05T20:09:54.152Z,8.50
2018-01-05T20:12:21.675Z,8.50
2018-01-05T20:14:49.165Z,8.50
2018-01-05T20:17:16.625Z,8.40
2018-01-05T20:19:44.095Z,8.50
2018-01-05T20:22:11.560Z,8.50
2018-01-05T20:24:39.007Z,8.50
2018-01-05T20:27:06.464Z,8.50
2018-01-05T20:29:34.003Z,8.50
2018-01-05T20:32:01.442Z,8.50
2018-01-05T20:34:28.931Z,8.50
2018-01-05T20:36:56.404Z,8.50
2018-01-05T20:39:23.844Z,8.50
2018-01-05T20:41:51.495Z,8.60
2018-01-05T20:44:18.979Z,8.60
2018-01-05T20:46:47.395Z,8.60
2018-01-05T20:49:14.977Z,8.60
2018-01-05T20:51:42.685Z,8.60
2018-01-05T20:54:10.189Z,8.60
2018-01-05T20:56:37.646Z,8.70
2018-01-05T20:59:05.091Z,8.60
2018-01-05T21:01:32.566Z,8.70
2018-01-05T21:04:00.086Z,8.70
2018-01-05T21:06:27.561Z,8.70
2018-01-05T21:08:55.309Z,8.70
2018-01-05T21:11:22.799Z,8.70
2018-01-05T21:13:51.073Z,8.70
2018-01-05T21:16:18.548Z,8.70
2018-01-05T21:18:46.123Z,8.70
2018-01-05T21:21:13.544Z,8.80
2018-01-05T21:23:41.026Z,8.80
2018-01-05T21:26:08.476Z,8.90
2018-01-05T21:28:35.940Z,8.90
2018-01-05T21:31:04.190Z,8.90
2018-01-05T21:33:31.763Z,8.90
2018-01-05T21:35:59.232Z,9.00
2018-01-05T21:38:26.756Z,8.90
2018-01-05T21:40:54.230Z,8.90
2018-01-05T21:43:21.714Z,8.90
2018-01-05T21:45:49.188Z,9.00
2018-01-05T21:48:16.677Z,9.00
2018-01-05T21:50:44.109Z,9.00
2018-01-05T21:53:11.611Z,9.00
2018-01-05T21:55:39.068Z,9.00
2018-01-05T21:58:06.575Z,9.00
2018-01-05T22:00:34.069Z,9.00
2018-01-05T22:03:01.596Z,9.00
2018-01-05T22:05:29.173Z,8.90
2018-01-05T22:07:56.616Z,9.00
2018-01-05T22:10:24.114Z,9.00
2018-01-05T22:12:51.611Z,9.00
2018-01-05T22:15:19.236Z,9.00
2018-01-05T22:17:46.685Z,8.90
2018-01-05T22:20:14.140Z,8.90
2018-01-05T22:22:41.581Z,8.90
2018-01-05T22:25:09.225Z,8.90
2018-01-05T22:27:36.662Z,8.90
2018-01-05T22:30:04.128Z,8.90
2018-01-05T22:32:31.664Z,9.00
2018-01-05T22:34:59.178Z,9.00
2018-01-05T22:37:26.649Z,9.00
2018-01-05T22:39:54.923Z,9.10
2018-01-05T22:42:22.392Z,9.00
2018-01-05T22:44:50.602Z,9.10
2018-01-05T22:47:18.727Z,9.10
2018-01-05T22:49:46.191Z,9.10
2018-01-05T22:52:13.641Z,9.00
2018-01-05T22:54:41.112Z,9.00
2018-01-05T22:57:08.570Z,9.00
2018-01-05T22:59:36.009Z,9.00
2018-01-05T23:02:03.514Z,9.00
2018-01-05T23:04:30.989Z,9.00
2018-01-05T23:06:58.475Z,9.00
2018-01-05T23:09:25.933Z,9.00
2018-01-05T23:11:53.378Z,9.00
2018-01-05T23:14:20.864Z,9.00
2018-01-05T23:16:49.092Z,8.90
2018-01-05T23:19:16.559Z,8.90
2018-01-05T23:21:44.037Z,8.80
2018-01-05T23:24:11.572Z,8.80
2018-01-05T23:26:39.020Z,8.80
2018-01-05T23:29:06.489Z,8.90
2018-01-05T23:31:33.931Z,8.80
2018-01-05T23:34:01.382Z,8.80
2018-01-05T23:36:29.619Z,8.80
2018-01-05T23:38:57.144Z,8.80
2018-01-05T23:41:24.588Z,8.90
2018-01-05T23:43:52.037Z,8.90
2018-01-05T23:46:19.504Z,9.00
2018-01-05T23:48:46.976Z,8.90
2018-01-05T23:51:14.435Z,8.90
2018-01-05T23:53:41.904Z,8.90
2018-01-05T23:56:09.347Z,8.90
2018-01-05T23:58:37.587Z,9.00
